Bossa Nova — NM723 — position and weather

sailwx.info

Track history (hours):
 
Tides and Currents Weather Stations Pressure Air Temp Water Temp Dewpoint Dewpoint Depression Visibility Wind Speed Wind Dir Waves Ship Positions

Bossa Nova

Last reported at 2017-Aug-25 03:32 UTC. Time now 2017-Sep-22 08:15 UTC.
Position S 22°19' E 166°29'.
Warning: this ship's position is 28 days out of date.

Length 12 m; draft 1 m.

Type: Sailing vessel. MMSI: 503752600.

Date/timePositionNaut miles runAvg speedWind from/ knotsBaromVisibWave heightAir tempDewpointWater temp
2017-Aug-25 03:32S 22°19' E 166°29'0 0.0
2017-Aug-25 03:23S 22°19' E 166°29'0 0.0
2017-Aug-25 02:56S 22°19' E 166°29'0 0.0
2017-Aug-25 02:28S 22°19' E 166°29'2 4.2
2017-Aug-25 01:59S 22°19' E 166°26'2 4.0
2017-Aug-25 01:30S 22°17' E 166°25'1 2.1
2017-Aug-25 01:00S 22°17' E 166°26'0 0.5
2017-Aug-25 00:30S 22°17' E 166°26'0 0.0
2017-Aug-23 00:54S 22°17' E 166°26'0 1.2
2017-Aug-23 00:31S 22°17' E 166°26'0 0.0
2017-Aug-22 08:30S 22°17' E 166°26'0 0.0
2017-Aug-22 08:00S 22°17' E 166°26'0 0.0
2017-Aug-22 07:30S 22°17' E 166°26'0 0.0
2017-Aug-22 07:00S 22°17' E 166°26'0 0.0
2017-Aug-22 06:30S 22°17' E 166°26'0 0.0
2017-Aug-22 06:00S 22°17' E 166°26'0 0.0
2017-Aug-21 06:02S 22°16' E 166°26'0 0.0
2017-Aug-21 05:59S 22°16' E 166°26'0 0.0
2017-Aug-21 05:29S 22°16' E 166°26'0 0.0
2017-Aug-21 04:59S 22°16' E 166°26'0 0.0
2017-Aug-21 04:29S 22°16' E 166°26'0 0.0
2017-Aug-21 03:50S 22°16' E 166°26'0 0.0
2017-Aug-21 03:29S 22°16' E 166°26'0 0.0
2017-Aug-21 02:56S 22°16' E 166°26'0 0.0
2017-Aug-21 02:29S 22°16' E 166°26'0 0.0
2017-Aug-21 01:59S 22°16' E 166°26'0 0.0
2017-Aug-21 01:29S 22°17' E 166°26'0 0.0
2017-Aug-21 00:59S 22°17' E 166°26'0 0.0
2017-Aug-21 00:29S 22°17' E 166°26'0 0.0
2017-Aug-20 23:59S 22°17' E 166°26'0 0.7
2017-Aug-20 23:29S 22°17' E 166°26'2 4.3
2017-Aug-20 23:00S 22°19' E 166°26'2 0.1
2017-Aug-20 03:04S 22°19' E 166°29'0 0.0
2017-Aug-20 02:55S 22°19' E 166°29'0 0.0
2017-Aug-20 02:28S 22°19' E 166°29'0 0.0
2017-Aug-20 01:58S 22°19' E 166°29'0 0.0
2017-Aug-19 22:25S 22°19' E 166°29'0 0.0
2017-Aug-19 21:55S 22°19' E 166°29'0 0.0
2017-Aug-19 05:48S 22°19' E 166°29'0 0.0
2017-Aug-19 05:30S 22°19' E 166°29'0 0.0
2017-Aug-19 04:57S 22°19' E 166°29'0 0.0
2017-Aug-19 03:48S 22°19' E 166°29'0 0.0
2017-Aug-19 03:30S 22°19' E 166°29'0 0.0
2017-Aug-19 03:00S 22°19' E 166°29'0 0.0
2017-Aug-19 02:30S 22°19' E 166°29'0 0.0
2017-Aug-19 02:00S 22°19' E 166°29'0 0.0
2017-Aug-19 01:30S 22°19' E 166°29'0 0.0
2017-Aug-19 01:00S 22°19' E 166°29'0 0.0
2017-Aug-19 00:27S 22°19' E 166°29'0 0.0
2017-Aug-18 22:48S 22°19' E 166°29'0 0.0
2017-Aug-18 22:24S 22°19' E 166°29'0 0.0
2017-Aug-18 00:16S 22°19' E 166°29'0 1.4
2017-Aug-17 23:59S 22°19' E 166°28'3 5.2
2017-Aug-17 23:30S 22°20' E 166°31'3 5.8
2017-Aug-17 22:59S 22°20' E 166°34'  
Track history (hours):
 
Tides and Currents Weather Stations Pressure Air Temp Water Temp Dewpoint Dewpoint Depression Visibility Wind Speed Wind Dir Waves Ship Positions

Bossa Nova

Last reported at 2017-Aug-25 03:32 UTC. Time now 2017-Sep-22 08:15 UTC.
Position S 22°19' E 166°29'.
Warning: this ship's position is 28 days out of date.

Length 12 m; draft 1 m.

Type: Sailing vessel. MMSI: 503752600.

Date/timePositionNaut miles runAvg speedWind from/ knotsBaromVisibWave heightAir tempDewpointWater temp
2017-Aug-25 03:32S 22°19' E 166°29'0 0.0
2017-Aug-25 03:23S 22°19' E 166°29'0 0.0
2017-Aug-25 02:56S 22°19' E 166°29'0 0.0
2017-Aug-25 02:28S 22°19' E 166°29'2 4.2
2017-Aug-25 01:59S 22°19' E 166°26'2 4.0
2017-Aug-25 01:30S 22°17' E 166°25'1 2.1
2017-Aug-25 01:00S 22°17' E 166°26'0 0.5
2017-Aug-25 00:30S 22°17' E 166°26'0 0.0
2017-Aug-23 00:54S 22°17' E 166°26'0 1.2
2017-Aug-23 00:31S 22°17' E 166°26'0 0.0
2017-Aug-22 08:30S 22°17' E 166°26'0 0.0
2017-Aug-22 08:00S 22°17' E 166°26'0 0.0
2017-Aug-22 07:30S 22°17' E 166°26'0 0.0
2017-Aug-22 07:00S 22°17' E 166°26'0 0.0
2017-Aug-22 06:30S 22°17' E 166°26'0 0.0
2017-Aug-22 06:00S 22°17' E 166°26'0 0.0
2017-Aug-21 06:02S 22°16' E 166°26'0 0.0
2017-Aug-21 05:59S 22°16' E 166°26'0 0.0
2017-Aug-21 05:29S 22°16' E 166°26'0 0.0
2017-Aug-21 04:59S 22°16' E 166°26'0 0.0
2017-Aug-21 04:29S 22°16' E 166°26'0 0.0
2017-Aug-21 03:50S 22°16' E 166°26'0 0.0
2017-Aug-21 03:29S 22°16' E 166°26'0 0.0
2017-Aug-21 02:56S 22°16' E 166°26'0 0.0
2017-Aug-21 02:29S 22°16' E 166°26'0 0.0
2017-Aug-21 01:59S 22°16' E 166°26'0 0.0
2017-Aug-21 01:29S 22°17' E 166°26'0 0.0
2017-Aug-21 00:59S 22°17' E 166°26'0 0.0
2017-Aug-21 00:29S 22°17' E 166°26'0 0.0
2017-Aug-20 23:59S 22°17' E 166°26'0 0.7
2017-Aug-20 23:29S 22°17' E 166°26'2 4.3
2017-Aug-20 23:00S 22°19' E 166°26'2 0.1
2017-Aug-20 03:04S 22°19' E 166°29'0 0.0
2017-Aug-20 02:55S 22°19' E 166°29'0 0.0
2017-Aug-20 02:28S 22°19' E 166°29'0 0.0
2017-Aug-20 01:58S 22°19' E 166°29'0 0.0
2017-Aug-19 22:25S 22°19' E 166°29'0 0.0
2017-Aug-19 21:55S 22°19' E 166°29'0 0.0
2017-Aug-19 05:48S 22°19' E 166°29'0 0.0
2017-Aug-19 05:30S 22°19' E 166°29'0 0.0
2017-Aug-19 04:57S 22°19' E 166°29'0 0.0
2017-Aug-19 03:48S 22°19' E 166°29'0 0.0
2017-Aug-19 03:30S 22°19' E 166°29'0 0.0
2017-Aug-19 03:00S 22°19' E 166°29'0 0.0
2017-Aug-19 02:30S 22°19' E 166°29'0 0.0
2017-Aug-19 02:00S 22°19' E 166°29'0 0.0
2017-Aug-19 01:30S 22°19' E 166°29'0 0.0
2017-Aug-19 01:00S 22°19' E 166°29'0 0.0
2017-Aug-19 00:27S 22°19' E 166°29'0 0.0
2017-Aug-18 22:48S 22°19' E 166°29'0 0.0
2017-Aug-18 22:24S 22°19' E 166°29'0 0.0
2017-Aug-18 00:16S 22°19' E 166°29'0 1.4
2017-Aug-17 23:59S 22°19' E 166°28'3 5.2
2017-Aug-17 23:30S 22°20' E 166°31'3 5.8
2017-Aug-17 22:59S 22°20' E 166°34'  

Dump ship's entire track history